Time;durP1;ratioP1;P1;durP2;ratioP2;P2;SDS_P1;SDS_P2;PMS_P1;PMS_P2;Temp;Humidity;BMP_temperature;BMP_pressure;BME280_temperature;BME280_humidity;BME280_pressure;Samples;Min_cycle;Max_cycle;Signal;HPM_P1;HPM_P2
2023/07/29 11:26:56;;;;;;;1.50;1.40;;;;;;;28.55;100.00;98322.27;102699;1291;600426;-81
2023/07/29 11:29:24;;;;;;;1.60;1.50;;;;;;;28.81;100.00;98322.31;105041;1267;59228;-77
2023/07/29 11:31:51;;;;;;;2.40;2.20;;;;;;;29.11;100.00;98320.45;105155;1266;59299;-80
2023/07/29 11:34:20;;;;;;;2.00;1.80;;;;;;;29.16;100.00;98312.62;105348;1266;64408;-78
2023/07/29 11:36:47;;;;;;;2.10;1.60;;;;;;;29.03;100.00;98311.31;105103;1273;59265;-79
2023/07/29 11:39:13;;;;;;;1.70;1.60;;;;;;;28.80;100.00;98309.52;105252;1265;63799;-79
2023/07/29 11:41:42;;;;;;;2.20;2.00;;;;;;;28.63;100.00;98309.96;104955;1259;1173310;-79
2023/07/29 11:44:17;;;;;;;2.10;1.90;;;;;;;28.52;100.00;98307.45;105941;1256;59410;-79
2023/07/29 11:46:44;;;;;;;1.90;1.80;;;;;;;28.52;100.00;98305.02;105795;1262;62333;-78
2023/07/29 11:49:10;;;;;;;2.00;1.80;;;;;;;28.56;100.00;98298.90;106008;1259;59752;-77
2023/07/29 11:51:37;;;;;;;2.00;1.80;;;;;;;28.65;100.00;98296.80;105919;1256;59643;-77
2023/07/29 11:54:03;;;;;;;1.90;1.70;;;;;;;28.88;100.00;98294.38;105646;1256;59705;-77
2023/07/29 11:56:30;;;;;;;2.00;1.30;;;;;;;29.05;100.00;98289.48;105620;1257;59736;-77
2023/07/29 11:58:57;;;;;;;2.00;1.70;;;;;;;29.17;100.00;98290.77;105638;1259;64515;-78
2023/07/29 12:01:23;;;;;;;1.20;1.10;;;;;;;29.48;100.00;98292.14;105663;1257;59900;-79
2023/07/29 12:03:51;;;;;;;2.30;1.80;;;;;;;29.69;100.00;98293.42;105648;1256;64668;-79
2023/07/29 12:06:17;;;;;;;1.70;1.60;;;;;;;29.74;100.00;98291.05;105598;1259;59615;-80
2023/07/29 12:08:44;;;;;;;1.40;1.30;;;;;;;29.89;100.00;98291.52;105666;1255;59634;-77
2023/07/29 12:11:11;;;;;;;1.50;1.40;;;;;;;30.07;100.00;98289.43;105606;1259;64240;-78
2023/07/29 12:13:37;;;;;;;1.40;1.30;;;;;;;30.30;100.00;98284.11;105701;1259;59447;-76
2023/07/29 12:16:04;;;;;;;1.70;1.60;;;;;;;30.51;100.00;98285.96;105621;1258;62887;-77
2023/07/29 12:18:32;;;;;;;1.20;1.20;;;;;;;30.75;100.00;98280.41;105617;1257;59788;-77
2023/07/29 12:21:00;;;;;;;2.10;1.90;;;;;;;30.79;100.00;98279.55;105615;1259;59545;-77
2023/07/29 12:23:27;;;;;;;1.60;1.50;;;;;;;30.61;100.00;98280.19;105715;1259;64881;-77
2023/07/29 12:25:59;;;;;;;1.30;1.20;;;;;;;30.51;100.00;98279.63;105628;1259;60231;-79
2023/07/29 12:28:26;;;;;;;2.10;1.50;;;;;;;30.48;100.00;98278.81;105668;1256;63708;-77
2023/07/29 12:30:57;;;;;;;2.50;1.60;;;;;;;30.51;100.00;98272.77;105426;1259;59643;-78
2023/07/29 12:33:55;;;;;;;1.50;1.40;;;;;;;30.65;100.00;98271.57;106053;1251;59638;-77
2023/07/29 12:36:22;;;;;;;1.90;1.50;;;;;;;30.49;100.00;98271.63;105487;1262;64460;-78
2023/07/29 12:38:48;;;;;;;2.00;1.20;;;;;;;30.35;100.00;98272.61;105499;1259;59545;-78
2023/07/29 12:41:15;;;;;;;1.50;1.10;;;;;;;30.25;100.00;98267.48;105424;1260;59570;-77
2023/07/29 12:43:41;;;;;;;1.40;1.30;;;;;;;30.16;100.00;98272.45;105350;1258;59747;-77
2023/07/29 12:46:08;;;;;;;1.10;1.10;;;;;;;29.99;100.00;98274.17;105371;1260;59632;-78
2023/07/29 12:48:34;;;;;;;2.00;1.50;;;;;;;29.82;100.00;98271.05;105277;1258;64208;-77
2023/07/29 12:51:01;;;;;;;1.60;1.50;;;;;;;29.78;99.16;98271.46;105393;1262;59820;-78
2023/07/29 12:53:27;;;;;;;1.50;1.40;;;;;;;29.71;92.76;98273.32;105402;1262;64436;-77
2023/07/29 12:55:54;;;;;;;1.60;1.50;;;;;;;29.56;89.81;98271.84;105406;1262;59667;-78
2023/07/29 12:58:20;;;;;;;1.20;1.00;;;;;;;29.58;89.20;98268.08;105400;1262;59561;-78
2023/07/29 13:00:47;;;;;;;1.50;1.40;;;;;;;29.67;89.46;98264.44;105310;1258;59595;-76
2023/07/29 13:03:14;;;;;;;1.40;1.30;;;;;;;29.74;90.00;98265.23;105372;1260;59984;-74
2023/07/29 13:05:41;;;;;;;1.30;1.20;;;;;;;29.66;90.05;98264.41;105377;1260;63744;-76
2023/07/29 13:08:07;;;;;;;2.60;1.50;;;;;;;29.62;90.93;98258.45;105199;1265;59750;-78
2023/07/29 13:10:34;;;;;;;1.80;1.70;;;;;;;29.63;91.11;98253.19;105392;1259;59571;-76
2023/07/29 13:13:00;;;;;;;2.60;1.70;;;;;;;29.62;90.90;98254.31;105340;1265;59681;-78
2023/07/29 13:15:26;;;;;;;2.30;1.70;;;;;;;29.48;88.69;98252.88;105912;1251;59746;-78
2023/07/29 13:17:53;;;;;;;4.60;4.30;;;;;;;29.34;88.72;98257.42;105831;1255;68079;-77
2023/07/29 13:20:19;;;;;;;2.60;2.20;;;;;;;29.15;89.25;98261.11;105777;1251;60875;-78
2023/07/29 13:22:46;;;;;;;2.00;1.80;;;;;;;29.22;89.94;98254.63;105504;1252;61105;-77
2023/07/29 13:25:12;;;;;;;2.00;1.80;;;;;;;29.50;90.62;98249.41;105741;1253;59645;-80
2023/07/29 13:27:39;;;;;;;2.50;2.00;;;;;;;29.76;89.99;98246.64;105816;1252;59678;-79
2023/07/29 13:30:07;;;;;;;1.80;1.60;;;;;;;29.81;88.96;98235.83;105677;1253;62704;-79
2023/07/29 13:32:33;;;;;;;2.00;1.60;;;;;;;29.83;86.62;98232.98;105548;1260;59621;-78
2023/07/29 13:35:00;;;;;;;1.50;1.40;;;;;;;29.73;85.87;98235.66;105771;1251;59693;-79
2023/07/29 13:37:26;;;;;;;1.70;1.60;;;;;;;29.61;85.26;98236.17;105810;1253;64085;-79
2023/07/29 13:39:53;;;;;;;2.00;1.80;;;;;;;29.50;86.05;98237.36;105832;1251;59736;-78
2023/07/29 13:42:19;;;;;;;2.20;1.50;;;;;;;29.32;85.72;98234.32;105797;1255;59736;-78
2023/07/29 13:44:46;;;;;;;1.10;1.10;;;;;;;29.04;85.04;98236.38;105770;1255;59750;-77
2023/07/29 13:47:12;;;;;;;2.30;1.10;;;;;;;28.80;85.08;98231.27;105628;1251;59686;-78
2023/07/29 13:49:39;;;;;;;1.80;1.30;;;;;;;28.64;84.97;98233.88;105803;1255;59609;-79
2023/07/29 13:52:05;;;;;;;2.10;1.60;;;;;;;28.54;84.91;98236.14;105806;1251;59623;-78
2023/07/29 13:54:32;;;;;;;1.50;1.40;;;;;;;28.49;84.36;98236.81;105532;1251;59829;-79
2023/07/29 13:56:58;;;;;;;3.10;1.70;;;;;;;28.52;84.36;98234.95;105873;1255;59736;-79
2023/07/29 13:59:25;;;;;;;1.90;1.80;;;;;;;28.56;84.33;98234.79;105828;1255;59729;-79
2023/07/29 14:01:51;;;;;;;1.90;1.80;;;;;;;28.61;84.71;98233.64;105804;1255;59742;-77
2023/07/29 14:04:18;;;;;;;2.40;1.60;;;;;;;28.59;84.98;98233.55;105816;1255;59544;-79
2023/07/29 14:06:45;;;;;;;1.70;1.60;;;;;;;28.63;85.55;98233.36;105788;1251;59621;-77
2023/07/29 14:09:12;;;;;;;2.00;1.90;;;;;;;28.65;85.81;98231.04;105780;1255;59739;-78
2023/07/29 14:11:38;;;;;;;1.70;1.60;;;;;;;28.73;85.55;98226.56;105832;1253;60057;-78
2023/07/29 14:14:05;;;;;;;1.70;1.60;;;;;;;28.81;86.02;98221.60;105807;1255;64974;-77
2023/07/29 14:16:31;;;;;;;1.70;1.60;;;;;;;28.94;85.83;98215.90;105805;1256;60220;-78
2023/07/29 14:18:58;;;;;;;3.20;1.70;;;;;;;29.03;86.32;98213.39;105437;1258;60839;-78
2023/07/29 14:21:24;;;;;;;1.60;1.50;;;;;;;29.16;86.53;98210.83;105780;1251;59756;-78
2023/07/29 14:23:51;;;;;;;2.00;1.90;;;;;;;29.24;85.86;98203.88;105821;1251;59622;-78
2023/07/29 14:26:18;;;;;;;2.10;1.90;;;;;;;29.23;85.72;98200.60;105781;1251;59648;-78
2023/07/29 14:28:44;;;;;;;2.10;2.00;;;;;;;29.21;85.68;98198.41;105633;1251;61021;-78
2023/07/29 14:31:10;;;;;;;2.10;1.90;;;;;;;29.20;86.14;98196.40;105816;1253;59673;-79
2023/07/29 14:33:37;;;;;;;2.00;1.80;;;;;;;29.16;85.78;98195.50;105841;1253;59613;-78
2023/07/29 14:36:04;;;;;;;2.00;1.90;;;;;;;29.03;85.79;98197.09;105864;1254;59507;-78
2023/07/29 14:38:30;;;;;;;1.80;1.60;;;;;;;28.88;85.96;98194.09;105820;1251;65293;-78
2023/07/29 14:40:57;;;;;;;2.00;1.80;;;;;;;28.71;86.17;98194.77;105919;1251;59626;-78
2023/07/29 14:43:23;;;;;;;2.90;1.90;;;;;;;28.56;85.93;98197.98;105864;1251;62451;-78
2023/07/29 14:45:50;;;;;;;1.80;1.70;;;;;;;28.35;85.84;98197.94;105881;1251;59649;-78
2023/07/29 14:48:16;;;;;;;1.50;1.40;;;;;;;28.22;86.19;98196.91;105846;1254;59492;-78
2023/07/29 14:50:43;;;;;;;1.60;1.50;;;;;;;28.16;86.04;98198.08;105881;1254;66022;-78
2023/07/29 14:53:11;;;;;;;2.90;2.00;;;;;;;28.12;86.19;98197.34;105846;1251;60618;-77
2023/07/29 14:55:38;;;;;;;1.40;1.30;;;;;;;28.08;86.53;98194.88;105847;1254;63674;-77
2023/07/29 14:58:04;;;;;;;1.60;1.50;;;;;;;28.09;86.96;98198.39;105878;1251;59710;-78
2023/07/29 15:00:31;;;;;;;2.40;1.70;;;;;;;28.18;86.67;98199.34;105792;1254;59575;-78
2023/07/29 15:02:57;;;;;;;1.70;1.40;;;;;;;28.27;85.98;98201.00;105587;1254;64218;-77
2023/07/29 15:05:24;;;;;;;1.60;1.50;;;;;;;28.30;86.11;98204.62;105865;1254;60677;-77
2023/07/29 15:07:50;;;;;;;5.10;2.80;;;;;;;28.30;86.07;98209.73;105832;1253;64644;-77
2023/07/29 15:10:17;;;;;;;2.20;2.00;;;;;;;28.28;86.00;98207.30;105719;1256;59728;-79
2023/07/29 15:12:44;;;;;;;1.70;1.60;;;;;;;28.27;85.44;98211.80;105863;1250;59673;-76
2023/07/29 15:15:12;;;;;;;1.40;1.30;;;;;;;28.24;84.77;98210.95;105862;1252;64463;-77
2023/07/29 15:17:38;;;;;;;1.60;1.40;;;;;;;28.20;84.61;98208.06;105819;1251;60758;-77
2023/07/29 15:20:05;;;;;;;1.70;1.40;;;;;;;28.27;84.88;98206.95;105823;1251;64910;-77
2023/07/29 15:22:32;;;;;;;1.50;1.40;;;;;;;28.26;84.63;98210.14;105852;1251;59646;-78
2023/07/29 15:25:01;;;;;;;1.30;1.20;;;;;;;28.19;84.22;98214.33;105864;1254;59710;-77
2023/07/29 15:27:29;;;;;;;1.60;1.50;;;;;;;28.29;85.32;98217.33;105909;1251;64110;-78
2023/07/29 15:29:56;;;;;;;2.20;1.70;;;;;;;28.54;85.74;98219.21;105905;1253;69544;-78
2023/07/29 15:32:23;;;;;;;1.30;1.20;;;;;;;28.70;85.24;98220.62;105871;1253;62541;-78
2023/07/29 15:34:49;;;;;;;1.90;1.60;;;;;;;28.80;85.03;98223.93;105884;1254;60426;-78
2023/07/29 15:37:16;;;;;;;1.40;1.30;;;;;;;28.88;85.03;98225.60;105940;1251;60456;-78
2023/07/29 15:39:42;;;;;;;2.00;1.50;;;;;;;28.94;84.78;98224.61;105950;1251;60432;-77
2023/07/29 15:42:09;;;;;;;1.60;1.50;;;;;;;28.99;85.70;98222.45;105909;1254;60374;-77
2023/07/29 15:44:37;;;;;;;2.10;1.60;;;;;;;29.10;85.84;98224.45;105926;1253;63094;-78
2023/07/29 15:47:03;;;;;;;1.40;1.30;;;;;;;29.03;84.65;98222.64;105942;1250;60545;-79
2023/07/29 15:49:30;;;;;;;1.60;1.50;;;;;;;28.90;85.02;98224.34;105951;1253;60434;-78
2023/07/29 15:51:56;;;;;;;1.60;1.50;;;;;;;28.83;85.38;98225.70;105932;1252;60458;-79
2023/07/29 15:54:23;;;;;;;2.30;1.60;;;;;;;28.63;85.11;98226.77;105940;1253;60408;-78
2023/07/29 15:56:49;;;;;;;1.70;1.60;;;;;;;28.29;85.39;98227.63;105871;1251;60588;-79
2023/07/29 15:59:16;;;;;;;1.80;1.70;;;;;;;28.01;86.36;98222.30;105908;1254;60406;-77
2023/07/29 16:01:42;;;;;;;4.60;1.50;;;;;;;27.84;87.26;98220.04;105932;1254;60334;-79
2023/07/29 16:04:09;;;;;;;1.70;1.60;;;;;;;27.64;87.66;98219.21;105851;1253;60432;-78
2023/07/29 16:06:37;;;;;;;2.00;1.80;;;;;;;27.43;88.32;98220.97;105857;1254;60384;-77
2023/07/29 16:09:06;;;;;;;2.10;1.80;;;;;;;27.22;88.78;98218.95;105856;1253;63439;-78
2023/07/29 16:11:33;;;;;;;1.90;1.60;;;;;;;27.05;89.68;98219.58;105865;1250;60434;-79
2023/07/29 16:14:00;;;;;;;1.80;1.70;;;;;;;26.94;90.51;98216.68;105834;1253;60349;-78
2023/07/29 16:16:28;;;;;;;1.80;1.70;;;;;;;26.92;91.34;98201.52;105866;1251;65606;-78
2023/07/29 16:18:54;;;;;;;1.70;1.60;;;;;;;26.89;91.78;98199.39;105737;1259;60542;-78
2023/07/29 16:21:21;;;;;;;1.70;1.40;;;;;;;26.84;92.14;98194.06;105852;1255;60420;-79
2023/07/29 16:23:52;;;;;;;2.00;1.90;;;;;;;26.79;92.69;98188.91;105825;1254;60439;-79
2023/07/29 16:26:20;;;;;;;2.30;2.20;;;;;;;26.74;93.26;98184.84;105862;1254;60343;-78
2023/07/29 16:28:47;;;;;;;2.30;2.10;;;;;;;26.70;93.76;98179.48;105588;1251;74457;-79
2023/07/29 16:31:14;;;;;;;3.20;2.10;;;;;;;26.63;94.35;98174.77;105949;1254;60435;-78
2023/07/29 16:33:41;;;;;;;2.30;2.10;;;;;;;26.54;94.83;98175.58;105968;1253;64480;-79
2023/07/29 16:36:07;;;;;;;2.60;2.40;;;;;;;26.40;95.08;98174.71;105896;1253;60488;-79
2023/07/29 16:38:34;;;;;;;2.90;2.70;;;;;;;26.26;95.71;98169.92;109634;1251;58425;-78
2023/07/29 16:41:00;;;;;;;2.60;2.40;;;;;;;26.14;96.41;98165.42;109651;1251;58184;-78
2023/07/29 16:43:27;;;;;;;2.80;2.60;;;;;;;26.02;97.26;98165.35;109627;1251;58224;-77
2023/07/29 16:45:53;;;;;;;3.10;2.80;;;;;;;25.90;98.04;98163.94;109446;1251;58320;-78
2023/07/29 16:48:20;;;;;;;2.10;2.00;;;;;;;25.81;98.94;98159.52;109611;1250;58265;-77
2023/07/29 16:50:46;;;;;;;2.20;2.10;;;;;;;25.73;99.30;98153.09;109673;1250;58202;-78
2023/07/29 16:53:12;;;;;;;3.30;2.40;;;;;;;25.67;99.89;98155.58;109635;1250;58241;-78
2023/07/29 16:55:40;;;;;;;4.70;2.00;;;;;;;25.60;100.00;98150.34;109663;1250;59855;-78
2023/07/29 16:58:07;;;;;;;2.60;2.10;;;;;;;25.56;100.00;98148.76;109641;1251;64174;-78
2023/07/29 17:00:34;;;;;;;2.70;1.90;;;;;;;25.51;100.00;98148.41;109615;1251;58213;-78
2023/07/29 17:03:00;;;;;;;2.90;2.30;;;;;;;25.46;100.00;98148.02;109521;1251;58053;-79
2023/07/29 17:05:27;;;;;;;2.50;2.00;;;;;;;25.40;100.00;98144.42;109519;1251;63685;-78
2023/07/29 17:07:54;;;;;;;2.50;2.30;;;;;;;25.36;100.00;98143.72;109624;1251;58280;-77
2023/07/29 17:10:20;;;;;;;3.10;2.90;;;;;;;25.38;100.00;98145.34;109524;1251;58226;-77
2023/07/29 17:12:46;;;;;;;3.80;3.40;;;;;;;25.39;100.00;98146.55;109514;1251;59136;-78
2023/07/29 17:15:13;;;;;;;3.50;3.00;;;;;;;25.35;100.00;98144.68;109632;1251;58215;-78
2023/07/29 17:17:40;;;;;;;3.30;3.00;;;;;;;25.33;100.00;98141.81;109629;1251;63716;-77
2023/07/29 17:20:07;;;;;;;4.10;3.00;;;;;;;25.51;100.00;98136.79;109303;1251;59825;-78
2023/07/29 17:22:35;;;;;;;3.90;3.20;;;;;;;25.66;100.00;98130.48;109576;1251;64940;-76
2023/07/29 17:25:03;;;;;;;4.60;3.20;;;;;;;25.85;100.00;98131.11;109523;1251;58254;-77
2023/07/29 17:27:30;;;;;;;3.40;3.10;;;;;;;26.03;100.00;98132.95;109566;1252;58198;-78
2023/07/29 17:29:56;;;;;;;3.30;2.70;;;;;;;26.18;100.00;98127.60;109665;1251;65342;-77
2023/07/29 17:32:23;;;;;;;4.00;3.20;;;;;;;26.40;100.00;98128.82;109600;1251;58276;-77
2023/07/29 17:34:49;;;;;;;3.40;3.10;;;;;;;26.68;100.00;98129.76;109589;1251;63931;-77
2023/07/29 17:37:16;;;;;;;3.70;3.00;;;;;;;26.81;100.00;98133.49;109570;1251;58175;-76
2023/07/29 17:39:43;;;;;;;2.70;2.10;;;;;;;26.62;99.89;98138.34;109579;1251;58211;-77
2023/07/29 17:42:09;;;;;;;2.20;1.70;;;;;;;26.38;98.89;98144.19;109594;1251;64169;-78
2023/07/29 17:44:36;;;;;;;1.50;1.20;;;;;;;26.14;96.55;98151.77;109579;1251;58247;-77
2023/07/29 17:47:03;;;;;;;1.40;1.20;;;;;;;25.79;95.42;98145.80;109667;1251;64048;-78
2023/07/29 17:49:29;;;;;;;2.70;1.50;;;;;;;25.54;95.62;98150.92;109345;1251;58282;-78
2023/07/29 17:51:56;;;;;;;2.50;1.10;;;;;;;25.36;95.82;98156.48;109599;1251;58203;-77
2023/07/29 17:54:22;;;;;;;1.30;1.20;;;;;;;25.16;95.42;98162.02;109608;1252;64928;-77
2023/07/29 17:56:49;;;;;;;2.60;1.20;;;;;;;24.95;95.17;98168.41;109613;1251;58616;-77
2023/07/29 17:59:15;;;;;;;2.20;1.20;;;;;;;24.76;94.99;98171.34;109588;1251;64026;-78
2023/07/29 18:01:42;;;;;;;1.20;1.00;;;;;;;24.57;95.57;98176.28;109588;1253;58179;-77
2023/07/29 18:04:09;;;;;;;2.60;2.10;;;;;;;24.43;96.01;98180.98;109585;1253;58278;-77
2023/07/29 18:06:35;;;;;;;1.70;1.40;;;;;;;24.37;96.13;98185.96;109307;1252;63706;-78
2023/07/29 18:09:02;;;;;;;3.10;1.30;;;;;;;24.38;96.46;98188.02;109580;1251;58246;-78
2023/07/29 18:11:28;;;;;;;2.20;1.20;;;;;;;24.33;96.29;98190.49;109328;1251;62930;-78
2023/07/29 18:13:55;;;;;;;2.00;1.30;;;;;;;24.20;96.23;98193.00;109531;1252;58222;-76
2023/07/29 18:16:22;;;;;;;1.20;1.10;;;;;;;24.06;96.10;98195.26;109333;1251;59057;-77
2023/07/29 18:18:49;;;;;;;2.70;1.20;;;;;;;23.92;96.35;98197.48;109632;1251;65157;-76
2023/07/29 18:21:16;;;;;;;2.10;1.40;;;;;;;23.81;96.45;98196.33;109569;1251;58922;-78
2023/07/29 18:23:42;;;;;;;2.10;1.00;;;;;;;23.69;96.95;98195.11;109379;1251;62539;-77
2023/07/29 18:26:09;;;;;;;1.60;1.00;;;;;;;23.59;97.28;98196.65;109593;1251;58157;-77
2023/07/29 18:28:36;;;;;;;2.20;1.10;;;;;;;23.48;97.64;98195.83;109590;1251;58155;-77
2023/07/29 18:31:02;;;;;;;3.80;1.70;;;;;;;23.40;98.05;98192.91;109588;1251;63597;-78
2023/07/29 18:33:29;;;;;;;2.60;1.40;;;;;;;23.37;98.85;98188.24;109564;1251;58289;-78
2023/07/29 18:35:56;;;;;;;3.00;2.00;;;;;;;23.33;99.26;98192.77;109538;1251;62962;-78
2023/07/29 18:38:23;;;;;;;4.70;2.90;;;;;;;23.28;99.43;98193.79;109572;1251;58232;-77
2023/07/29 18:40:49;;;;;;;2.30;2.00;;;;;;;23.23;99.63;98194.52;109250;1251;58183;-78
2023/07/29 18:43:16;;;;;;;2.80;1.20;;;;;;;23.18;99.62;98191.48;109538;1253;58180;-78
2023/07/29 18:45:42;;;;;;;1.70;1.30;;;;;;;23.11;99.88;98188.33;109525;1251;58247;-78
2023/07/29 18:48:09;;;;;;;2.90;1.20;;;;;;;23.04;100.00;98193.98;109542;1251;64039;-78
2023/07/29 18:50:35;;;;;;;1.40;1.30;;;;;;;22.96;100.00;98194.26;109565;1251;58082;-78
2023/07/29 18:53:02;;;;;;;1.90;1.40;;;;;;;22.90;100.00;98195.67;109639;1251;58064;-78
2023/07/29 18:55:31;;;;;;;1.50;1.30;;;;;;;22.82;100.00;98190.36;109553;1251;58509;-78
2023/07/29 18:57:57;;;;;;;2.90;1.80;;;;;;;22.74;100.00;98189.98;109650;1251;59873;-78
2023/07/29 19:00:24;;;;;;;1.30;1.20;;;;;;;22.68;100.00;98194.55;109559;1251;63869;-78
2023/07/29 19:02:50;;;;;;;1.40;1.20;;;;;;;22.58;100.00;98199.38;109588;1251;58201;-79
2023/07/29 19:05:17;;;;;;;1.90;1.40;;;;;;;22.49;100.00;98205.13;109654;1251;58271;-77
2023/07/29 19:07:44;;;;;;;2.20;1.60;;;;;;;22.41;100.00;98208.02;109609;1251;64021;-77
2023/07/29 19:10:11;;;;;;;2.20;1.20;;;;;;;22.33;100.00;98213.86;109613;1251;59790;-79
2023/07/29 19:12:38;;;;;;;2.80;1.40;;;;;;;22.26;100.00;98216.10;109563;1251;62856;-78
2023/07/29 19:15:06;;;;;;;1.90;1.40;;;;;;;22.17;100.00;98221.48;109649;1251;58162;-78
2023/07/29 19:17:34;;;;;;;3.60;2.10;;;;;;;22.09;100.00;98222.15;109657;1251;58172;-78
2023/07/29 19:20:03;;;;;;;2.20;1.90;;;;;;;22.01;100.00;98224.30;109676;1251;63795;-79
2023/07/29 19:22:29;;;;;;;2.70;2.10;;;;;;;21.92;100.00;98224.34;109637;1251;60207;-78
2023/07/29 19:24:56;;;;;;;3.60;1.90;;;;;;;21.84;100.00;98225.48;109545;1251;58202;-78
2023/07/29 19:27:23;;;;;;;2.70;1.80;;;;;;;21.77;100.00;98232.24;109556;1253;58278;-78
2023/07/29 19:29:49;;;;;;;2.60;2.30;;;;;;;21.68;100.00;98234.70;109671;1251;58162;-78
2023/07/29 19:32:16;;;;;;;3.80;2.50;;;;;;;21.62;100.00;98235.38;109546;1251;65189;-77
2023/07/29 19:34:45;;;;;;;2.30;2.10;;;;;;;21.52;100.00;98231.84;109539;1253;59004;-77
2023/07/29 19:37:12;;;;;;;3.50;2.40;;;;;;;21.45;100.00;98235.23;109523;1251;64065;-77
2023/07/29 19:39:39;;;;;;;2.30;2.10;;;;;;;21.41;100.00;98235.60;109502;1251;59142;-78
2023/07/29 19:42:06;;;;;;;5.30;2.20;;;;;;;21.33;100.00;98236.90;109552;1251;58320;-79
2023/07/29 19:44:34;;;;;;;3.20;2.30;;;;;;;21.26;100.00;98241.80;109555;1252;64903;-78
2023/07/29 19:47:00;;;;;;;2.90;2.30;;;;;;;21.18;100.00;98237.70;109585;1251;58920;-77
2023/07/29 19:49:27;;;;;;;3.40;1.80;;;;;;;21.13;100.00;98234.44;109542;1251;63897;-78
2023/07/29 19:52:00;;;;;;;2.70;2.30;;;;;;;21.09;100.00;98234.98;109556;1251;58181;-78
2023/07/29 19:54:27;;;;;;;2.80;2.40;;;;;;;21.04;100.00;98233.81;109592;1251;58165;-77
2023/07/29 19:56:54;;;;;;;4.00;2.40;;;;;;;20.95;100.00;98233.04;109585;1251;64055;-79
2023/07/29 19:59:20;;;;;;;2.30;1.80;;;;;;;20.87;100.00;98238.01;109586;1251;58182;-78
2023/07/29 20:01:47;;;;;;;2.70;2.40;;;;;;;20.81;100.00;98240.08;109496;1251;62835;-78
2023/07/29 20:04:13;;;;;;;2.30;2.10;;;;;;;20.75;100.00;98239.74;109557;1251;58238;-78
2023/07/29 20:06:40;;;;;;;2.40;1.90;;;;;;;20.70;100.00;98234.30;109572;1251;58213;-79
2023/07/29 20:09:06;;;;;;;2.50;1.90;;;;;;;20.68;100.00;98230.60;109590;1251;63834;-78
2023/07/29 20:11:33;;;;;;;2.90;2.10;;;;;;;20.65;100.00;98236.89;109579;1251;58999;-78
2023/07/29 20:13:59;;;;;;;2.60;2.00;;;;;;;20.62;100.00;98239.39;109548;1251;58209;-79
2023/07/29 20:16:28;;;;;;;3.00;2.00;;;;;;;20.59;100.00;98240.05;109548;1251;58177;-78
2023/07/29 20:18:54;;;;;;;3.00;2.70;;;;;;;20.57;100.00;98246.86;109580;1251;58226;-77
2023/07/29 20:21:21;;;;;;;2.30;2.10;;;;;;;20.54;100.00;98243.40;109587;1251;58590;-78
2023/07/29 20:23:48;;;;;;;3.10;2.10;;;;;;;20.51;100.00;98246.27;109517;1251;60317;-76
2023/07/29 20:26:15;;;;;;;2.50;1.90;;;;;;;20.47;100.00;98245.38;109555;1251;63967;-78
2023/07/29 20:28:42;;;;;;;2.70;1.90;;;;;;;20.43;100.00;98247.14;109473;1251;58220;-77
2023/07/29 20:31:08;;;;;;;2.80;1.70;;;;;;;20.39;100.00;98245.59;109602;1251;58067;-75
2023/07/29 20:33:35;;;;;;;1.60;1.50;;;;;;;20.35;100.00;98239.52;109560;1251;58702;-78
2023/07/29 20:36:01;;;;;;;1.90;1.70;;;;;;;20.34;100.00;98241.34;109578;1251;58489;-78
2023/07/29 20:38:28;;;;;;;1.90;1.70;;;;;;;20.33;100.00;98238.25;109532;1251;58773;-78
2023/07/29 20:40:56;;;;;;;2.30;2.10;;;;;;;20.33;100.00;98232.83;109499;1251;58147;-77
2023/07/29 20:43:24;;;;;;;2.40;1.80;;;;;;;20.35;100.00;98232.06;109617;1251;58274;-77
2023/07/29 20:45:53;;;;;;;2.10;1.90;;;;;;;20.36;100.00;98233.88;109552;1251;65267;-78
2023/07/29 20:48:20;;;;;;;1.50;1.40;;;;;;;20.37;100.00;98234.94;109551;1251;60099;-77
2023/07/29 20:50:46;;;;;;;5.80;2.10;;;;;;;20.39;100.00;98235.83;109516;1251;64277;-78
2023/07/29 20:53:13;;;;;;;2.90;1.50;;;;;;;20.40;100.00;98234.98;109610;1251;58170;-77
2023/07/29 20:55:41;;;;;;;1.90;1.70;;;;;;;20.40;100.00;98232.69;109597;1252;58514;-78
2023/07/29 20:58:08;;;;;;;2.30;1.40;;;;;;;20.37;100.00;98225.57;109578;1251;63905;-78
2023/07/29 21:00:35;;;;;;;2.10;1.40;;;;;;;20.37;100.00;98229.57;109532;1251;60128;-77
2023/07/29 21:03:02;;;;;;;1.60;1.50;;;;;;;20.37;100.00;98235.92;109533;1251;62575;-78
2023/07/29 21:05:34;;;;;;;1.70;1.60;;;;;;;20.35;100.00;98239.98;109534;1255;58151;-79
2023/07/29 21:08:00;;;;;;;2.50;1.60;;;;;;;20.32;100.00;98248.02;109415;1251;58393;-78
2023/07/29 21:10:27;;;;;;;2.10;1.80;;;;;;;20.30;100.00;98249.70;109562;1252;58199;-79
2023/07/29 21:12:54;;;;;;;2.50;1.80;;;;;;;20.29;100.00;98248.08;109592;1251;58245;-79
2023/07/29 21:15:21;;;;;;;2.60;1.50;;;;;;;20.27;100.00;98249.01;109508;1252;64127;-77
2023/07/29 21:17:47;;;;;;;1.70;1.60;;;;;;;20.26;100.00;98246.31;109483;1251;58169;-78
2023/07/29 21:20:14;;;;;;;2.50;1.70;;;;;;;20.24;100.00;98240.08;109574;1252;58160;-79
2023/07/29 21:22:40;;;;;;;2.60;1.50;;;;;;;20.21;100.00;98236.17;109515;1251;65267;-78
2023/07/29 21:25:08;;;;;;;1.50;1.40;;;;;;;20.18;100.00;98239.95;109523;1253;58203;-77
2023/07/29 21:27:34;;;;;;;1.80;1.50;;;;;;;20.15;100.00;98241.57;109548;1251;63988;-78
2023/07/29 21:30:01;;;;;;;3.90;1.90;;;;;;;20.13;100.00;98247.77;109571;1251;58218;-78
2023/07/29 21:32:27;;;;;;;3.40;1.90;;;;;;;20.11;100.00;98248.54;109521;1251;58171;-80
2023/07/29 21:34:54;;;;;;;1.50;1.40;;;;;;;20.09;100.00;98236.86;109524;1251;58099;-79
2023/07/29 21:37:20;;;;;;;3.10;1.90;;;;;;;20.08;100.00;98242.42;109587;1251;60142;-77
2023/07/29 21:39:47;;;;;;;2.10;1.90;;;;;;;20.05;100.00;98249.96;109560;1251;63754;-79
2023/07/29 21:42:14;;;;;;;2.00;1.80;;;;;;;20.04;100.00;98248.16;109309;1251;58356;-78
2023/07/29 21:44:40;;;;;;;2.40;1.80;;;;;;;20.01;100.00;98249.90;109518;1251;58168;-78
2023/07/29 21:47:07;;;;;;;1.70;1.60;;;;;;;20.00;100.00;98246.70;109551;1255;65042;-78
2023/07/29 21:49:33;;;;;;;2.10;1.80;;;;;;;19.99;100.00;98244.65;109305;1252;58853;-80
2023/07/29 21:52:00;;;;;;;3.50;1.70;;;;;;;19.96;100.00;98247.98;109503;1252;58192;-80
2023/07/29 21:54:26;;;;;;;3.10;1.80;;;;;;;19.94;100.00;98251.64;109531;1251;58233;-79
2023/07/29 21:56:53;;;;;;;2.10;1.90;;;;;;;19.93;100.00;98252.90;109549;1251;58145;-78
2023/07/29 21:59:19;;;;;;;2.70;1.50;;;;;;;19.91;100.00;98253.09;109554;1251;63601;-78
2023/07/29 22:01:46;;;;;;;2.50;1.60;;;;;;;19.88;100.00;98253.75;109543;1251;58230;-78
2023/07/29 22:04:12;;;;;;;2.40;1.90;;;;;;;19.86;100.00;98257.12;109541;1251;62723;-79
2023/07/29 22:06:39;;;;;;;2.00;1.80;;;;;;;19.83;100.00;98264.42;109566;1252;58291;-79
2023/07/29 22:09:05;;;;;;;3.20;2.20;;;;;;;19.82;100.00;98264.48;109583;1251;58151;-78
2023/07/29 22:11:32;;;;;;;2.90;2.10;;;;;;;19.80;100.00;98261.05;109537;1251;64066;-78
2023/07/29 22:13:59;;;;;;;2.40;1.90;;;;;;;19.79;100.00;98262.42;109490;1251;60393;-78
2023/07/29 22:16:25;;;;;;;2.10;2.00;;;;;;;19.78;100.00;98260.02;109541;1251;58166;-79
2023/07/29 22:18:52;;;;;;;2.30;2.10;;;;;;;19.77;100.00;98256.70;109513;1251;58220;-78
2023/07/29 22:21:18;;;;;;;2.60;1.90;;;;;;;19.77;100.00;98254.40;109503;1251;58144;-78
2023/07/29 22:23:45;;;;;;;2.30;1.70;;;;;;;19.76;100.00;98250.69;109543;1251;58678;-77
2023/07/29 22:26:12;;;;;;;1.80;1.70;;;;;;;19.74;100.00;98253.11;109547;1251;60050;-80
2023/07/29 22:28:38;;;;;;;2.90;2.50;;;;;;;19.71;100.00;98256.98;109529;1251;64087;-77
2023/07/29 22:31:06;;;;;;;2.60;2.30;;;;;;;19.70;100.00;98259.69;109453;1251;58207;-79
2023/07/29 22:33:33;;;;;;;3.10;2.50;;;;;;;19.68;100.00;98255.91;109526;1251;58415;-79
2023/07/29 22:36:00;;;;;;;2.30;2.10;;;;;;;19.67;100.00;98254.67;109565;1251;63813;-80
2023/07/29 22:38:27;;;;;;;2.20;2.00;;;;;;;19.65;100.00;98257.60;109513;1251;59007;-80
2023/07/29 22:40:55;;;;;;;3.30;1.90;;;;;;;19.62;100.00;98260.75;109509;1251;63152;-79
2023/07/29 22:43:22;;;;;;;2.70;2.20;;;;;;;19.59;100.00;98266.89;109491;1251;58214;-79
2023/07/29 22:45:57;;;;;;;2.50;2.00;;;;;;;19.56;100.00;98270.52;109548;1251;58465;-77